Rhodes, Greece
Current Conditions -  °F | °C
As of 11:20 AM on Sunday 23 Nov 2014 (Local Time) from LGRP Reporting Station
Few Clouds Few Clouds  
Wind Chill: 59°   Ceiling: Unl
Heat Index: 59°   Visibility: 6mi
Dew Point: 41°   Wind: 5mph
Humidity: 51%   Direction: 350°N
Pressure: 30.06"   Gusts: NA
Location:  36.43°N, 28.22°E
Report Text: LGRP 230820Z 35004KT 9999 FEW018 15/05 Q1018 NOSIG
Loading
Personal Weather Stations






























Interactive Weather Map New forecast layout! Learn more

10-Day Weather Forecast

Advertisements
Track Severe Weather on mobile